Time;durP1;ratioP1;P1;durP2;ratioP2;P2;SDS_P1;SDS_P2;PMS_P1;PMS_P2;Temp;Humidity;BMP_temperature;BMP_pressure;BME280_temperature;BME280_humidity;BME280_pressure;Samples;Min_cycle;Max_cycle;Signal;HPM_P1;HPM_P2
2023/04/09 00:01:54;;;;;;;90.50;23.30;;;9.10;99.90;;;;;;5019892;28;20648;-88
2023/04/09 00:04:23;;;;;;;92.07;22.80;;;9.00;99.90;;;;;;5019724;28;20201;-87
2023/04/09 00:06:49;;;;;;;88.63;22.35;;;9.00;99.90;;;;;;5019136;28;20169;-88
2023/04/09 00:09:15;;;;;;;90.50;21.87;;;9.00;99.90;;;;;;5020729;28;20176;-87
2023/04/09 00:11:41;;;;;;;88.60;21.83;;;8.90;99.90;;;;;;5020889;28;20662;-87
2023/04/09 00:14:07;;;;;;;93.70;24.67;;;8.90;99.90;;;;;;5018961;28;20813;-87
2023/04/09 00:16:32;;;;;;;91.77;22.60;;;8.90;99.90;;;;;;5089502;23;21208;-82
2023/04/09 00:18:58;;;;;;;87.60;22.50;;;9.00;99.90;;;;;;5038238;28;20400;-79
2023/04/09 00:21:25;;;;;;;89.20;21.60;;;9.00;99.90;;;;;;5037462;28;20633;-79
2023/04/09 00:23:51;;;;;;;87.80;22.65;;;9.00;99.90;;;;;;5037986;28;20231;-79
2023/04/09 00:26:17;;;;;;;88.03;22.67;;;8.90;99.90;;;;;;5036076;28;20633;-79
2023/04/09 00:28:42;;;;;;;89.83;22.23;;;8.90;99.90;;;;;;5037050;28;20165;-79
2023/04/09 00:31:10;;;;;;;93.57;23.20;;;8.90;99.90;;;;;;5036480;28;20258;-79
2023/04/09 00:33:38;;;;;;;90.35;22.80;;;8.90;99.90;;;;;;5037122;28;20592;-79
2023/04/09 00:36:04;;;;;;;89.75;22.80;;;8.80;99.90;;;;;;5038088;28;20314;-79
2023/04/09 00:38:30;;;;;;;88.73;21.87;;;8.90;99.90;;;;;;5038114;28;20647;-79
2023/04/09 00:40:56;;;;;;;94.72;23.25;;;8.80;99.90;;;;;;5039921;28;20532;-79
2023/04/09 00:43:23;;;;;;;89.70;23.20;;;8.80;99.90;;;;;;5036528;28;20199;-79
2023/04/09 00:45:51;;;;;;;92.68;23.90;;;8.80;99.90;;;;;;5037603;28;20165;-79
2023/04/09 00:48:17;;;;;;;88.18;21.80;;;8.80;99.90;;;;;;5038099;28;20544;-79
2023/04/09 00:50:43;;;;;;;87.93;21.20;;;8.80;99.90;;;;;;5036238;28;20189;-79
2023/04/09 00:53:13;;;;;;;93.50;25.40;;;8.70;99.90;;;;;;5038256;28;20199;-79
2023/04/09 00:55:40;;;;;;;90.40;24.48;;;8.70;99.90;;;;;;5038156;28;20164;-79
2023/04/09 00:58:06;;;;;;;92.75;24.80;;;8.70;99.90;;;;;;5038547;28;20161;-79
2023/04/09 01:00:35;;;;;;;93.28;24.42;;;8.70;99.90;;;;;;5037778;28;20173;-79
2023/04/09 01:03:08;;;;;;;89.63;22.63;;;8.70;99.90;;;;;;5035682;28;20211;-79
2023/04/09 01:05:47;;;;;;;91.68;22.92;;;8.70;99.90;;;;;;5036374;28;20180;-79
2023/04/09 01:08:37;;;;;;;90.53;23.10;;;8.80;99.90;;;;;;5036745;28;20577;-79
2023/04/09 01:11:25;;;;;;;91.88;23.80;;;8.70;99.90;;;;;;5037836;28;20199;-79
2023/04/09 01:14:11;;;;;;;90.07;24.08;;;8.70;99.90;;;;;;5040980;28;20200;-79
2023/04/09 01:16:50;;;;;;;92.70;24.77;;;8.70;99.90;;;;;;5040433;28;20157;-79
2023/04/09 01:19:37;;;;;;;94.60;24.10;;;8.70;99.90;;;;;;5041895;28;20184;-79
2023/04/09 01:22:15;;;;;;;93.45;25.67;;;8.70;99.90;;;;;;5039857;28;20525;-79
2023/04/09 01:25:06;;;;;;;92.78;23.30;;;8.60;99.90;;;;;;5039786;28;20662;-79
2023/04/09 01:28:00;;;;;;;97.75;24.40;;;8.60;99.90;;;;;;5040899;28;20165;-79
2023/04/09 01:30:27;;;;;;;93.35;23.90;;;8.60;99.90;;;;;;5040554;28;20153;-79
2023/04/09 01:32:55;;;;;;;94.28;25.55;;;8.60;99.90;;;;;;5038743;28;20664;-79
2023/04/09 01:35:21;;;;;;;90.53;23.08;;;8.60;99.90;;;;;;5040251;28;20161;-79
2023/04/09 01:37:48;;;;;;;91.82;23.17;;;8.50;99.90;;;;;;5040326;28;20166;-79
2023/04/09 01:40:14;;;;;;;91.00;25.42;;;8.50;99.90;;;;;;5038520;28;20169;-79
2023/04/09 01:42:40;;;;;;;90.97;25.27;;;8.40;99.90;;;;;;5040253;28;20165;-79
2023/04/09 01:45:07;;;;;;;90.10;23.40;;;8.40;99.90;;;;;;5040660;28;20177;-79
2023/04/09 01:47:33;;;;;;;92.78;23.38;;;8.40;99.90;;;;;;5040019;28;20400;-79
2023/04/09 01:49:59;;;;;;;93.65;25.00;;;8.40;99.90;;;;;;5039914;28;20165;-79
2023/04/09 01:52:25;;;;;;;87.93;22.92;;;8.40;99.90;;;;;;5038510;28;20726;-79
2023/04/09 01:54:51;;;;;;;89.07;22.98;;;8.50;99.90;;;;;;5039968;28;20303;-79
2023/04/09 01:57:17;;;;;;;92.63;23.37;;;8.50;99.90;;;;;;5038260;28;20204;-79
2023/04/09 01:59:42;;;;;;;87.67;22.40;;;8.50;99.90;;;;;;5038909;28;20351;-79
2023/04/09 02:02:18;;;;;;;92.10;22.80;;;8.40;99.90;;;;;;5039761;28;20165;-79
2023/04/09 02:04:47;;;;;;;95.95;24.70;;;8.40;99.90;;;;;;5039168;28;20185;-79
2023/04/09 02:07:21;;;;;;;96.65;23.65;;;8.40;99.90;;;;;;5039436;28;20166;-79
2023/04/09 02:09:48;;;;;;;88.78;22.23;;;8.40;99.90;;;;;;5039574;28;20175;-79
2023/04/09 02:12:16;;;;;;;93.70;21.85;;;8.40;99.90;;;;;;5038547;28;20224;-79
2023/04/09 02:14:45;;;;;;;89.07;24.05;;;8.50;99.90;;;;;;5040089;28;20177;-79
2023/04/09 02:17:12;;;;;;;91.93;23.20;;;8.40;99.90;;;;;;5039742;28;20174;-79
2023/04/09 02:19:45;;;;;;;89.03;21.58;;;8.40;99.90;;;;;;5037872;28;20235;-79
2023/04/09 02:22:12;;;;;;;89.75;24.42;;;8.40;99.90;;;;;;5039788;28;20153;-79
2023/04/09 02:24:39;;;;;;;91.25;25.17;;;8.40;99.90;;;;;;5038328;28;20181;-79
2023/04/09 02:27:05;;;;;;;90.47;23.70;;;8.40;99.90;;;;;;5038005;28;20169;-79
2023/04/09 02:29:31;;;;;;;93.88;24.15;;;8.40;99.90;;;;;;5038028;28;20173;-79
2023/04/09 02:31:56;;;;;;;88.83;21.70;;;8.30;99.90;;;;;;5038462;28;20199;-79
2023/04/09 02:34:23;;;;;;;89.80;23.27;;;8.30;99.90;;;;;;5039187;28;20242;-79
2023/04/09 02:36:49;;;;;;;89.00;23.38;;;8.40;99.90;;;;;;5039032;28;20176;-79
2023/04/09 02:39:14;;;;;;;90.43;21.83;;;8.30;99.90;;;;;;5039372;28;20157;-80
2023/04/09 02:41:40;;;;;;;88.27;22.00;;;8.30;99.90;;;;;;5037906;28;20918;-79
2023/04/09 02:44:06;;;;;;;92.97;24.30;;;8.20;99.90;;;;;;5037604;28;20514;-79
2023/04/09 02:46:32;;;;;;;86.88;21.77;;;8.20;99.90;;;;;;5037743;28;20664;-79
2023/04/09 02:48:58;;;;;;;89.30;22.70;;;8.20;99.90;;;;;;5038951;28;20173;-79
2023/04/09 02:51:25;;;;;;;99.13;21.73;;;8.20;99.90;;;;;;5039094;28;20193;-79
2023/04/09 02:53:51;;;;;;;96.18;21.52;;;8.20;99.90;;;;;;5039004;28;20592;-79
2023/04/09 02:56:16;;;;;;;88.03;20.07;;;8.20;99.90;;;;;;5037519;28;20165;-79
2023/04/09 02:58:42;;;;;;;95.23;21.63;;;8.20;99.90;;;;;;5037750;28;20169;-79
2023/04/09 03:01:08;;;;;;;86.03;21.00;;;8.10;99.90;;;;;;5038181;28;20175;-80
2023/04/09 03:03:38;;;;;;;89.23;21.40;;;8.10;99.90;;;;;;5038754;28;20267;-79
2023/04/09 03:06:04;;;;;;;90.97;21.23;;;8.10;99.90;;;;;;5038547;28;20200;-79
2023/04/09 03:08:30;;;;;;;87.73;21.70;;;8.10;99.90;;;;;;5038540;28;20537;-79
2023/04/09 03:10:55;;;;;;;89.73;22.40;;;8.00;99.90;;;;;;5037888;28;20227;-79
2023/04/09 03:13:21;;;;;;;86.67;20.20;;;8.00;99.90;;;;;;5038913;28;20185;-79
2023/04/09 03:15:51;;;;;;;85.60;20.73;;;8.00;99.90;;;;;;5038581;28;20647;-79
2023/04/09 03:18:17;;;;;;;90.03;21.67;;;7.90;99.90;;;;;;5038561;28;20196;-79
2023/04/09 03:20:43;;;;;;;83.67;19.33;;;7.90;99.90;;;;;;5036889;28;20637;-79
2023/04/09 03:23:10;;;;;;;89.80;21.00;;;7.90;99.90;;;;;;5037973;28;20212;-79
2023/04/09 03:25:38;;;;;;;90.65;22.25;;;7.90;99.90;;;;;;5036843;28;20576;-79
2023/04/09 03:28:04;;;;;;;87.55;20.48;;;7.90;99.90;;;;;;5037542;28;20236;-79
2023/04/09 03:30:30;;;;;;;91.30;21.63;;;7.90;99.90;;;;;;5037083;28;20180;-79
2023/04/09 03:32:56;;;;;;;90.20;21.20;;;7.90;99.90;;;;;;5037256;28;20514;-79
2023/04/09 03:35:22;;;;;;;94.03;22.77;;;7.90;99.90;;;;;;5038328;28;20153;-79
2023/04/09 03:37:48;;;;;;;86.57;20.87;;;7.80;99.90;;;;;;5038334;28;20169;-79
2023/04/09 03:40:13;;;;;;;90.63;22.63;;;7.80;99.90;;;;;;5038331;28;20250;-79
2023/04/09 03:42:41;;;;;;;91.80;22.80;;;7.80;99.90;;;;;;5037166;28;20177;-79
2023/04/09 03:45:07;;;;;;;88.57;21.52;;;7.80;99.90;;;;;;5038584;28;20177;-79
2023/04/09 03:47:33;;;;;;;92.63;21.20;;;7.80;99.90;;;;;;5037782;28;20176;-79
2023/04/09 03:49:59;;;;;;;84.63;18.97;;;7.80;99.90;;;;;;5038591;28;20494;-79
2023/04/09 03:52:24;;;;;;;87.67;20.47;;;7.80;99.90;;;;;;5036824;28;20192;-79
2023/04/09 03:54:50;;;;;;;92.23;21.40;;;7.70;99.90;;;;;;5037762;28;20177;-79
2023/04/09 03:57:15;;;;;;;86.67;19.20;;;7.70;99.90;;;;;;5036682;28;20210;-79
2023/04/09 03:59:41;;;;;;;83.03;18.97;;;7.70;99.90;;;;;;5037717;28;20189;-79
2023/04/09 04:02:07;;;;;;;85.67;19.40;;;7.60;99.90;;;;;;5037634;28;20166;-80
2023/04/09 04:04:32;;;;;;;84.20;20.50;;;7.60;99.90;;;;;;5036523;28;20232;-79
2023/04/09 04:06:58;;;;;;;88.03;20.83;;;7.60;99.90;;;;;;5038170;28;20633;-79
2023/04/09 04:09:24;;;;;;;85.00;19.00;;;7.60;99.90;;;;;;5036341;28;20173;-79
2023/04/09 04:11:50;;;;;;;88.97;22.00;;;7.60;99.90;;;;;;5037775;28;20580;-79
2023/04/09 04:14:15;;;;;;;86.20;21.90;;;7.60;99.90;;;;;;5037972;28;20177;-81
2023/04/09 04:16:41;;;;;;;87.40;20.63;;;7.50;99.90;;;;;;5037278;28;20193;-79
2023/04/09 04:19:06;;;;;;;85.80;18.80;;;7.50;99.90;;;;;;5037656;28;20157;-79
2023/04/09 04:21:32;;;;;;;85.67;20.50;;;7.50;99.90;;;;;;5037052;28;20161;-80
2023/04/09 04:23:58;;;;;;;89.23;21.40;;;7.50;99.90;;;;;;5036376;28;20537;-79
2023/04/09 04:26:23;;;;;;;88.93;20.63;;;7.50;99.90;;;;;;5037580;28;20180;-79
2023/04/09 04:28:49;;;;;;;86.37;19.73;;;7.50;99.90;;;;;;5037040;28;20161;-80
2023/04/09 04:31:15;;;;;;;88.30;19.63;;;7.50;99.90;;;;;;5035788;28;20564;-80
2023/04/09 04:33:41;;;;;;;90.87;19.63;;;7.50;99.90;;;;;;5037784;28;20969;-79
2023/04/09 04:36:09;;;;;;;89.38;21.17;;;7.40;99.90;;;;;;5036159;28;20576;-79
2023/04/09 04:38:35;;;;;;;87.00;19.50;;;7.50;99.90;;;;;;5037299;28;20169;-79
2023/04/09 04:41:01;;;;;;;86.83;18.37;;;7.40;99.90;;;;;;5037260;28;20197;-79
2023/04/09 04:43:27;;;;;;;95.88;20.80;;;7.30;99.90;;;;;;5035927;28;21018;-79
2023/04/09 04:45:53;;;;;;;91.47;19.57;;;7.30;99.90;;;;;;5036381;28;20211;-79
2023/04/09 04:48:19;;;;;;;81.55;19.08;;;7.30;99.90;;;;;;5041160;28;20404;-79
2023/04/09 04:50:45;;;;;;;87.00;18.73;;;7.30;99.90;;;;;;5041182;28;20185;-79
2023/04/09 04:53:10;;;;;;;85.50;19.83;;;7.30;99.90;;;;;;5041005;28;20177;-79
2023/04/09 04:55:38;;;;;;;88.17;21.10;;;7.30;99.90;;;;;;5040264;28;20165;-79
2023/04/09 04:58:04;;;;;;;86.18;20.25;;;7.30;99.90;;;;;;5041175;28;20167;-79
2023/04/09 05:00:30;;;;;;;85.07;19.45;;;7.20;99.90;;;;;;5041850;28;20629;-79
2023/04/09 05:02:56;;;;;;;87.85;20.20;;;7.20;99.90;;;;;;5041390;28;20714;-79
2023/04/09 05:05:22;;;;;;;84.47;19.90;;;7.20;99.90;;;;;;5041804;28;20169;-79
2023/04/09 05:07:48;;;;;;;85.10;19.87;;;7.10;99.90;;;;;;5041145;28;20240;-79
2023/04/09 05:10:13;;;;;;;85.47;20.63;;;7.10;99.90;;;;;;5039908;28;20169;-80
2023/04/09 05:12:39;;;;;;;84.67;19.13;;;7.10;99.90;;;;;;5041188;28;20664;-79
2023/04/09 05:15:05;;;;;;;86.13;19.20;;;7.20;99.90;;;;;;5040574;28;20157;-79
2023/04/09 05:17:31;;;;;;;89.93;20.85;;;7.20;99.90;;;;;;5040894;28;20544;-79
2023/04/09 05:19:57;;;;;;;86.43;20.03;;;7.20;99.90;;;;;;5039769;28;20176;-79
2023/04/09 05:22:22;;;;;;;88.77;19.37;;;7.20;99.90;;;;;;5039517;28;20169;-79
2023/04/09 05:24:48;;;;;;;81.97;18.67;;;7.20;99.90;;;;;;5040985;28;20225;-79
2023/04/09 05:27:22;;;;;;;80.80;18.50;;;7.20;99.90;;;;;;5041156;28;20240;-80
2023/04/09 05:29:48;;;;;;;86.82;20.30;;;7.20;99.90;;;;;;5039793;28;20846;-80
2023/04/09 05:32:14;;;;;;;87.60;20.50;;;7.20;99.90;;;;;;5041517;28;20189;-79
2023/04/09 05:34:40;;;;;;;82.18;18.80;;;7.20;99.90;;;;;;5040619;28;20227;-79
2023/04/09 05:37:06;;;;;;;87.87;20.40;;;7.30;99.90;;;;;;5039030;28;20161;-79
2023/04/09 05:39:32;;;;;;;86.47;20.37;;;7.30;99.90;;;;;;5040695;28;20162;-79
2023/04/09 05:41:57;;;;;;;84.50;20.27;;;7.30;99.90;;;;;;5040780;28;20177;-79
2023/04/09 05:44:23;;;;;;;87.30;20.27;;;7.30;99.90;;;;;;5041881;28;20462;-79
2023/04/09 05:46:49;;;;;;;86.17;20.60;;;7.40;99.90;;;;;;5041509;28;20176;-80
2023/04/09 05:49:17;;;;;;;84.57;20.07;;;7.40;99.90;;;;;;5041621;28;20180;-80
2023/04/09 05:51:43;;;;;;;85.18;18.90;;;7.50;99.90;;;;;;5039524;28;20679;-80
2023/04/09 05:54:08;;;;;;;85.13;19.50;;;7.50;99.90;;;;;;5042146;28;20252;-80
2023/04/09 05:56:34;;;;;;;81.90;18.23;;;7.60;99.90;;;;;;5041625;28;20162;-80
2023/04/09 05:59:03;;;;;;;83.43;19.85;;;7.60;99.90;;;;;;5041558;28;20561;-79
2023/04/09 06:01:29;;;;;;;85.47;18.80;;;7.60;99.90;;;;;;5042048;28;20173;-80
2023/04/09 06:03:54;;;;;;;86.23;19.97;;;7.70;99.90;;;;;;5041314;28;20196;-80
2023/04/09 06:06:20;;;;;;;85.97;18.93;;;7.60;99.90;;;;;;5041903;28;20304;-80
2023/04/09 06:08:46;;;;;;;84.17;18.23;;;7.50;99.90;;;;;;5040432;28;20473;-79
2023/04/09 06:11:12;;;;;;;84.90;18.50;;;7.50;99.90;;;;;;5041612;28;20254;-79
2023/04/09 06:13:39;;;;;;;87.15;18.35;;;7.60;99.90;;;;;;5040033;28;20232;-79
2023/04/09 06:16:06;;;;;;;86.50;19.23;;;7.60;99.90;;;;;;5039642;28;20165;-79
2023/04/09 06:18:31;;;;;;;88.40;18.20;;;7.50;99.90;;;;;;5111585;22;20217;-87
2023/04/09 06:21:12;;;;;;;83.77;17.80;;;7.60;99.90;;;;;;5020319;28;20200;-87
2023/04/09 06:23:38;;;;;;;83.43;15.95;;;7.60;99.90;;;;;;5017389;28;20448;-86
2023/04/09 06:26:05;;;;;;;82.90;15.95;;;7.60;99.90;;;;;;5016797;28;20174;-86
2023/04/09 06:28:31;;;;;;;84.63;17.35;;;7.60;99.90;;;;;;5017935;28;20158;-87
2023/04/09 06:30:57;;;;;;;82.43;16.33;;;7.50;99.90;;;;;;5018318;28;20542;-85
2023/04/09 06:33:23;;;;;;;83.20;16.63;;;7.60;99.90;;;;;;5016908;28;20189;-86
2023/04/09 06:35:49;;;;;;;82.77;16.30;;;7.60;99.90;;;;;;5018017;28;20166;-87
2023/04/09 06:38:18;;;;;;;85.47;18.60;;;7.70;99.90;;;;;;5017494;28;20177;-85
2023/04/09 06:40:44;;;;;;;81.13;16.15;;;7.60;99.90;;;;;;5016709;28;20425;-86
2023/04/09 06:43:10;;;;;;;85.38;15.63;;;7.50;99.90;;;;;;5017351;28;20196;-86
2023/04/09 06:45:36;;;;;;;78.83;14.43;;;7.60;99.90;;;;;;5016635;28;20261;-86
2023/04/09 06:48:03;;;;;;;79.95;14.88;;;7.60;99.90;;;;;;5016537;28;20208;-86
2023/04/09 06:50:29;;;;;;;82.38;14.60;;;7.70;99.90;;;;;;5016321;28;20269;-87
2023/04/09 06:52:55;;;;;;;81.75;14.82;;;7.70;99.90;;;;;;5017569;28;20182;-86
2023/04/09 06:55:20;;;;;;;76.20;13.37;;;7.80;99.90;;;;;;5016628;28;20173;-87
2023/04/09 06:57:46;;;;;;;80.53;14.33;;;7.80;99.90;;;;;;5017373;28;20409;-87
2023/04/09 07:00:12;;;;;;;79.70;13.93;;;7.90;99.90;;;;;;5017301;28;20165;-86
2023/04/09 07:02:41;;;;;;;78.15;13.82;;;7.90;99.90;;;;;;5017788;28;20413;-87
2023/04/09 07:05:07;;;;;;;80.88;13.60;;;7.90;99.90;;;;;;5018501;28;20169;-86
2023/04/09 07:07:33;;;;;;;78.28;13.98;;;8.00;99.90;;;;;;5017905;28;20257;-86
2023/04/09 07:10:00;;;;;;;81.90;15.30;;;8.10;99.90;;;;;;5018679;28;20407;-87
2023/04/09 07:12:26;;;;;;;79.20;15.75;;;8.20;99.90;;;;;;5017694;28;20224;-86
2023/04/09 07:14:52;;;;;;;80.03;14.05;;;8.30;99.90;;;;;;5017380;28;20194;-85
2023/04/09 07:17:20;;;;;;;78.45;15.05;;;8.30;99.90;;;;;;5018447;28;20189;-86
2023/04/09 07:19:46;;;;;;;77.73;14.60;;;8.30;99.90;;;;;;5017698;28;20220;-87
2023/04/09 07:22:12;;;;;;;78.13;12.93;;;8.40;99.90;;;;;;5017264;28;20409;-87
2023/04/09 07:24:38;;;;;;;76.97;13.67;;;8.40;99.90;;;;;;5017000;28;20665;-86
2023/04/09 07:27:04;;;;;;;75.70;13.52;;;8.50;99.90;;;;;;5017977;28;20714;-86
2023/04/09 07:29:30;;;;;;;76.57;14.90;;;8.60;99.90;;;;;;5017700;28;20197;-86
2023/04/09 07:31:55;;;;;;;75.23;12.80;;;8.60;99.90;;;;;;5018473;28;20448;-87
2023/04/09 07:34:21;;;;;;;81.60;14.03;;;8.70;99.90;;;;;;5016751;28;20285;-87
2023/04/09 07:36:47;;;;;;;76.07;13.40;;;8.80;99.90;;;;;;5018268;28;20170;-87
2023/04/09 07:39:13;;;;;;;78.90;14.00;;;8.80;99.90;;;;;;5019645;28;20170;-86
2023/04/09 07:41:39;;;;;;;78.80;13.30;;;8.90;99.90;;;;;;5019521;28;20416;-86
2023/04/09 07:44:06;;;;;;;76.85;11.73;;;9.00;99.90;;;;;;5041748;23;20224;-86
2023/04/09 07:46:40;;;;;;;78.90;13.43;;;9.00;99.90;;;;;;5039962;28;20161;-86
2023/04/09 07:49:05;;;;;;;75.72;11.52;;;9.00;99.90;;;;;;5040103;28;20146;-86
2023/04/09 07:51:31;;;;;;;80.13;13.20;;;9.10;99.90;;;;;;5039531;28;20200;-87
2023/04/09 07:53:57;;;;;;;79.80;12.40;;;9.10;96.20;;;;;;5038537;28;20252;-86
2023/04/09 07:56:22;;;;;;;73.90;11.70;;;9.20;95.90;;;;;;5038507;28;20522;-86
2023/04/09 07:58:49;;;;;;;75.50;11.63;;;9.20;97.30;;;;;;5039739;28;20400;-86
2023/04/09 08:01:15;;;;;;;78.03;11.60;;;9.30;99.90;;;;;;5039976;28;20180;-85
2023/04/09 08:03:41;;;;;;;77.83;11.90;;;9.40;98.20;;;;;;5039526;28;20217;-86
2023/04/09 08:06:07;;;;;;;76.37;11.70;;;9.40;93.90;;;;;;5041135;28;20482;-86
2023/04/09 08:08:33;;;;;;;78.60;13.60;;;9.50;96.40;;;;;;5040457;28;20404;-86
2023/04/09 08:10:59;;;;;;;74.13;11.23;;;9.50;90.60;;;;;;5041196;28;20191;-86
2023/04/09 08:13:24;;;;;;;80.43;12.90;;;9.50;89.30;;;;;;5040320;28;20431;-86
2023/04/09 08:15:50;;;;;;;75.37;11.80;;;9.60;89.30;;;;;;5039632;28;20500;-86
2023/04/09 08:18:16;;;;;;;74.57;10.57;;;9.70;89.30;;;;;;5041159;28;20487;-86
2023/04/09 08:20:44;;;;;;;73.17;10.23;;;9.70;85.20;;;;;;5038965;28;20165;-86
2023/04/09 08:23:10;;;;;;;74.07;11.43;;;9.70;70.90;;;;;;5040714;28;20603;-86
2023/04/09 08:25:36;;;;;;;79.00;11.50;;;9.80;69.70;;;;;;5040579;28;20175;-85
2023/04/09 08:28:05;;;;;;;73.67;10.63;;;9.90;62.30;;;;;;5040086;28;20217;-86
2023/04/09 08:30:33;;;;;;;79.28;11.55;;;9.90;49.50;;;;;;5038320;28;20222;-86
2023/04/09 08:33:00;;;;;;;73.80;11.13;;;10.00;59.00;;;;;;5038331;28;20196;-86
2023/04/09 08:35:27;;;;;;;72.93;11.15;;;10.10;53.30;;;;;;5039655;28;20579;-86
2023/04/09 08:37:55;;;;;;;76.50;10.82;;;10.10;49.90;;;;;;5039599;28;20153;-86
2023/04/09 08:40:20;;;;;;;74.10;9.40;;;10.20;42.90;;;;;;5040248;28;20192;-85
2023/04/09 08:42:55;;;;;;;75.73;10.97;;;10.20;37.70;;;;;;5038668;28;20165;-86
2023/04/09 08:45:21;;;;;;;74.20;10.82;;;10.40;44.80;;;;;;5038937;28;20145;-86
2023/04/09 08:47:49;;;;;;;75.90;11.10;;;10.40;39.00;;;;;;5039249;28;20261;-85
2023/04/09 08:50:15;;;;;;;74.30;11.05;;;10.50;47.70;;;;;;5038440;28;20536;-87
2023/04/09 08:52:41;;;;;;;75.47;11.00;;;10.60;44.80;;;;;;5037715;28;20193;-87
2023/04/09 08:55:07;;;;;;;75.75;11.38;;;10.70;53.90;;;;;;5039149;28;20211;-87
2023/04/09 08:57:38;;;;;;;74.80;11.10;;;10.70;51.30;;;;;;5038238;28;20199;-87
2023/04/09 09:00:05;;;;;;;74.88;11.02;;;10.70;51.90;;;;;;5039380;28;20556;-87
2023/04/09 09:02:30;;;;;;;75.85;11.98;;;10.70;43.40;;;;;;5038903;28;20177;-87
2023/04/09 09:04:59;;;;;;;75.87;12.40;;;10.80;47.80;;;;;;5039068;28;20506;-87
2023/04/09 09:07:28;;;;;;;74.72;12.20;;;10.90;43.20;;;;;;5038757;28;20525;-87
2023/04/09 09:10:02;;;;;;;73.72;11.65;;;11.00;20.10;;;;;;5037835;28;20269;-87
2023/04/09 09:12:37;;;;;;;74.47;11.30;;;11.10;18.90;;;;;;5040152;28;20264;-87
2023/04/09 09:15:23;;;;;;;73.53;10.50;;;11.20;25.70;;;;;;5038908;28;20176;-87
2023/04/09 09:17:54;;;;;;;73.32;10.10;;;11.20;25.80;;;;;;5038928;28;20176;-87
2023/04/09 09:20:21;;;;;;;75.00;11.60;;;11.30;14.40;;;;;;5038012;28;20169;-87
2023/04/09 09:22:51;;;;;;;72.28;10.68;;;11.50;11.40;;;;;;5038931;28;20627;-87
2023/04/09 09:25:23;;;;;;;73.28;10.73;;;11.50;1.00;;;;;;5039334;28;20161;-87
2023/04/09 09:27:49;;;;;;;72.22;10.05;;;11.60;1.00;;;;;;5039110;28;20177;-87
2023/04/09 09:30:26;;;;;;;72.22;8.65;;;11.70;1.00;;;;;;5038885;28;20167;-87
2023/04/09 09:33:12;;;;;;;69.05;8.20;;;11.70;1.00;;;;;;5038149;28;20223;-87
2023/04/09 09:35:56;;;;;;;71.10;8.77;;;11.80;1.00;;;;;;5041467;28;20177;-87
2023/04/09 09:38:25;;;;;;;72.90;8.73;;;11.80;1.00;;;;;;5041086;28;20573;-87
2023/04/09 09:40:51;;;;;;;71.53;7.10;;;11.90;1.00;;;;;;5042041;28;20169;-87
2023/04/09 09:43:17;;;;;;;70.17;8.53;;;12.00;1.00;;;;;;5042466;28;20224;-87
2023/04/09 09:45:45;;;;;;;69.90;8.10;;;12.10;1.00;;;;;;5042033;28;20493;-87
2023/04/09 09:48:14;;;;;;;70.30;7.75;;;12.10;1.00;;;;;;5042235;28;20186;-87
2023/04/09 09:50:41;;;;;;;69.78;8.95;;;12.30;1.00;;;;;;5043818;28;20202;-87
2023/04/09 09:53:09;;;;;;;69.60;7.28;;;12.30;1.00;;;;;;5043158;28;20185;-87
2023/04/09 09:55:44;;;;;;;71.20;7.85;;;12.30;1.00;;;;;;5043686;28;20161;-87
2023/04/09 09:58:23;;;;;;;71.15;7.18;;;12.20;1.00;;;;;;5044781;28;20156;-87
2023/04/09 10:00:51;;;;;;;71.07;8.32;;;12.40;1.00;;;;;;5044349;28;20537;-87
2023/04/09 10:03:23;;;;;;;69.43;7.65;;;12.60;1.00;;;;;;5043072;28;20212;-87
2023/04/09 10:05:50;;;;;;;70.40;8.00;;;12.80;1.00;;;;;;5040875;28;20248;-87
2023/04/09 10:08:21;;;;;;;70.63;7.40;;;13.00;1.00;;;;;;5042787;28;20169;-87
2023/04/09 10:10:48;;;;;;;71.28;8.40;;;13.30;1.00;;;;;;5044236;28;20173;-87
2023/04/09 10:13:24;;;;;;;68.57;7.32;;;13.60;1.00;;;;;;5043611;28;20220;-87
2023/04/09 10:15:50;;;;;;;70.47;8.45;;;13.70;1.00;;;;;;5042636;28;20142;-87
2023/04/09 10:18:23;;;;;;;71.53;7.80;;;13.70;1.00;;;;;;5040044;28;20166;-87
2023/04/09 10:21:00;;;;;;;69.28;7.22;;;13.60;1.00;;;;;;5042581;28;20576;-87
2023/04/09 10:23:40;;;;;;;72.60;8.57;;;13.50;1.00;;;;;;5042678;28;20185;-86
2023/04/09 10:26:07;;;;;;;69.18;7.07;;;13.50;1.00;;;;;;5044254;28;20646;-87
2023/04/09 10:28:33;;;;;;;69.90;7.05;;;13.50;1.00;;;;;;5040221;28;20176;-87
2023/04/09 10:30:59;;;;;;;71.50;7.53;;;13.40;1.00;;;;;;5042665;28;20189;-87
2023/04/09 10:33:27;;;;;;;69.77;7.43;;;13.30;1.00;;;;;;5043286;28;20260;-87
2023/04/09 10:35:54;;;;;;;70.68;7.57;;;13.30;1.00;;;;;;5042036;28;20521;-87
2023/04/09 10:38:39;;;;;;;70.10;7.47;;;13.60;1.00;;;;;;5041964;28;20169;-87
2023/04/09 10:41:21;;;;;;;70.22;7.13;;;13.90;1.00;;;;;;5042122;28;20153;-87
2023/04/09 10:43:47;;;;;;;69.97;7.32;;;13.90;1.00;;;;;;5040948;28;20212;-87
2023/04/09 10:46:32;;;;;;;69.30;7.38;;;13.60;1.00;;;;;;5040726;28;20169;-87
2023/04/09 10:49:15;;;;;;;70.07;8.05;;;13.50;1.00;;;;;;5040826;28;20169;-87
2023/04/09 10:52:03;;;;;;;72.00;7.87;;;13.50;1.00;;;;;;5040464;28;20193;-87
2023/04/09 10:54:34;;;;;;;70.75;7.57;;;13.90;1.00;;;;;;5040456;28;20486;-87
2023/04/09 10:57:06;;;;;;;72.72;9.40;;;14.30;1.00;;;;;;5042217;28;20157;-87
2023/04/09 10:59:37;;;;;;;70.85;8.63;;;14.20;1.00;;;;;;5041148;28;20204;-87
2023/04/09 11:02:07;;;;;;;71.10;8.25;;;14.00;1.00;;;;;;5042756;28;20260;-87
2023/04/09 11:05:12;;;;;;;71.97;8.87;;;14.00;1.00;;;;;;5042629;28;20186;-87
2023/04/09 11:07:42;;;;;;;73.90;9.10;;;14.50;1.00;;;;;;5038906;28;20465;-87
2023/04/09 11:10:08;;;;;;;70.55;8.05;;;14.80;1.00;;;;;;5042022;28;20157;-87
2023/04/09 11:12:34;;;;;;;69.60;7.47;;;15.10;1.00;;;;;;5039912;28;20575;-87
2023/04/09 11:15:00;;;;;;;71.77;8.30;;;15.20;1.00;;;;;;5042216;28;20404;-87
2023/04/09 11:17:26;;;;;;;70.50;7.50;;;15.00;1.00;;;;;;5041183;28;20413;-87
2023/04/09 11:19:52;;;;;;;71.37;7.40;;;14.80;1.00;;;;;;5041256;28;20640;-87
2023/04/09 11:22:18;;;;;;;71.90;7.73;;;15.00;1.00;;;;;;5042127;28;20412;-87
2023/04/09 11:24:46;;;;;;;71.30;7.23;;;14.90;1.00;;;;;;5042324;28;20216;-87
2023/04/09 11:27:18;;;;;;;70.20;7.50;;;14.90;1.00;;;;;;5041784;28;20165;-86
2023/04/09 11:29:46;;;;;;;70.57;7.50;;;15.10;1.00;;;;;;5038601;28;20404;-85
2023/04/09 11:32:14;;;;;;;71.90;8.27;;;15.20;1.00;;;;;;5037755;28;20859;-86
2023/04/09 11:34:51;;;;;;;72.20;7.83;;;15.00;1.00;;;;;;5038060;28;20431;-85
2023/04/09 11:37:23;;;;;;;71.97;8.70;;;14.80;1.00;;;;;;5037604;28;20502;-85
2023/04/09 11:39:53;;;;;;;72.47;8.73;;;14.50;1.00;;;;;;5038659;28;20420;-86
2023/04/09 11:42:41;;;;;;;71.07;7.90;;;14.40;1.00;;;;;;5038562;28;20415;-86
2023/04/09 11:45:08;;;;;;;70.20;7.30;;;14.50;1.00;;;;;;5038428;28;20503;-86
2023/04/09 11:47:34;;;;;;;70.20;7.70;;;14.70;1.00;;;;;;5038950;28;20399;-85
2023/04/09 11:50:00;;;;;;;72.03;7.60;;;14.70;1.00;;;;;;5038573;28;20417;-86
2023/04/09 11:52:26;;;;;;;70.77;7.50;;;14.60;1.00;;;;;;5039848;28;20507;-87
2023/04/09 11:55:05;;;;;;;71.10;8.00;;;14.50;1.00;;;;;;5039448;28;20436;-87
2023/04/09 11:57:41;;;;;;;71.50;7.20;;;14.40;1.00;;;;;;5040468;28;20498;-86
2023/04/09 12:00:09;;;;;;;71.70;7.30;;;14.40;1.00;;;;;;5040022;28;20399;-86
2023/04/09 12:02:44;;;;;;;68.87;6.77;;;14.50;1.00;;;;;;5041317;28;20748;-87
2023/04/09 12:05:12;;;;;;;70.30;7.67;;;14.60;1.00;;;;;;5040732;28;20384;-87
2023/04/09 12:07:39;;;;;;;70.67;7.80;;;15.10;1.00;;;;;;5040687;28;20416;-87
2023/04/09 12:10:09;;;;;;;70.87;7.20;;;15.20;1.00;;;;;;5041453;28;20419;-87
2023/04/09 12:12:43;;;;;;;70.80;6.60;;;15.40;1.00;;;;;;5039666;28;20533;-87
2023/04/09 12:15:20;;;;;;;69.20;6.90;;;15.40;1.00;;;;;;5039520;28;20933;-87
2023/04/09 12:17:59;;;;;;;70.20;6.33;;;15.40;1.00;;;;;;5040618;28;20403;-87
2023/04/09 12:20:38;;;;;;;72.30;7.40;;;15.50;1.00;;;;;;5039920;28;20494;-87
2023/04/09 12:23:05;;;;;;;71.07;7.83;;;15.60;1.00;;;;;;5040135;28;20427;-87
2023/04/09 12:25:34;;;;;;;69.40;6.83;;;15.30;1.00;;;;;;5038219;28;20487;-87
2023/04/09 12:28:00;;;;;;;70.10;7.20;;;15.10;1.00;;;;;;5040935;28;20408;-87
2023/04/09 12:30:26;;;;;;;71.40;8.27;;;14.90;1.00;;;;;;5041283;28;20404;-87
2023/04/09 12:32:53;;;;;;;69.00;6.30;;;15.20;1.00;;;;;;5040410;28;20447;-86
2023/04/09 12:35:19;;;;;;;68.87;6.40;;;15.70;1.00;;;;;;5040438;28;21018;-87
2023/04/09 12:37:46;;;;;;;72.17;7.43;;;15.60;1.00;;;;;;5040457;28;20412;-87
2023/04/09 12:40:12;;;;;;;69.67;7.60;;;15.70;1.00;;;;;;5042236;28;20462;-86
2023/04/09 12:42:43;;;;;;;69.90;6.60;;;15.90;1.00;;;;;;5040016;28;20445;-86
2023/04/09 12:45:10;;;;;;;68.47;7.40;;;16.30;1.00;;;;;;5039494;28;20501;-87